sensor_id;sensor_type;location;lat;lon;timestamp;P1;durP1;ratioP1;P2;durP2;ratioP2
21675;SDS011;10999;51.332;9.458;2023-08-21T00:01:38;8.65;;;4.68;;
21675;SDS011;10999;51.332;9.458;2023-08-21T00:04:04;8.45;;;5.20;;
21675;SDS011;10999;51.332;9.458;2023-08-21T00:06:31;9.40;;;5.20;;
21675;SDS011;10999;51.332;9.458;2023-08-21T00:08:59;13.65;;;5.97;;
21675;SDS011;10999;51.332;9.458;2023-08-21T00:11:27;10.07;;;4.93;;
21675;SDS011;10999;51.332;9.458;2023-08-21T00:13:53;9.57;;;4.82;;
21675;SDS011;10999;51.332;9.458;2023-08-21T00:16:20;9.25;;;4.82;;
21675;SDS011;10999;51.332;9.458;2023-08-21T00:18:47;10.05;;;4.45;;
21675;SDS011;10999;51.332;9.458;2023-08-21T00:21:15;9.18;;;4.78;;
21675;SDS011;10999;51.332;9.458;2023-08-21T00:23:41;9.77;;;4.60;;
21675;SDS011;10999;51.332;9.458;2023-08-21T00:26:08;9.70;;;5.20;;
21675;SDS011;10999;51.332;9.458;2023-08-21T00:28:35;7.60;;;3.97;;
21675;SDS011;10999;51.332;9.458;2023-08-21T00:31:02;9.60;;;4.93;;
21675;SDS011;10999;51.332;9.458;2023-08-21T00:33:33;10.10;;;4.47;;
21675;SDS011;10999;51.332;9.458;2023-08-21T00:35:59;9.48;;;4.60;;
21675;SDS011;10999;51.332;9.458;2023-08-21T00:38:26;8.38;;;4.63;;
21675;SDS011;10999;51.332;9.458;2023-08-21T00:40:53;9.18;;;4.68;;
21675;SDS011;10999;51.332;9.458;2023-08-21T00:43:20;10.65;;;4.82;;
21675;SDS011;10999;51.332;9.458;2023-08-21T00:45:48;9.18;;;4.38;;
21675;SDS011;10999;51.332;9.458;2023-08-21T00:48:17;8.65;;;5.15;;
21675;SDS011;10999;51.332;9.458;2023-08-21T00:50:44;8.65;;;4.30;;
21675;SDS011;10999;51.332;9.458;2023-08-21T00:53:12;10.13;;;5.05;;
21675;SDS011;10999;51.332;9.458;2023-08-21T00:55:39;7.57;;;4.22;;
21675;SDS011;10999;51.332;9.458;2023-08-21T00:58:06;9.68;;;4.80;;
21675;SDS011;10999;51.332;9.458;2023-08-21T01:00:37;11.68;;;5.13;;
21675;SDS011;10999;51.332;9.458;2023-08-21T01:03:04;11.18;;;5.72;;
21675;SDS011;10999;51.332;9.458;2023-08-21T01:05:31;9.15;;;4.55;;
21675;SDS011;10999;51.332;9.458;2023-08-21T01:08:02;8.77;;;4.95;;
21675;SDS011;10999;51.332;9.458;2023-08-21T01:10:41;8.18;;;4.45;;
21675;SDS011;10999;51.332;9.458;2023-08-21T01:15:53;8.77;;;4.80;;
21675;SDS011;10999;51.332;9.458;2023-08-21T01:18:22;9.25;;;4.43;;
21675;SDS011;10999;51.332;9.458;2023-08-21T01:20:50;9.77;;;4.97;;
21675;SDS011;10999;51.332;9.458;2023-08-21T01:23:30;8.90;;;4.63;;
21675;SDS011;10999;51.332;9.458;2023-08-21T01:26:01;9.52;;;4.55;;
21675;SDS011;10999;51.332;9.458;2023-08-21T01:28:28;9.55;;;4.60;;
21675;SDS011;10999;51.332;9.458;2023-08-21T01:31:00;9.30;;;4.57;;
21675;SDS011;10999;51.332;9.458;2023-08-21T01:33:49;9.75;;;4.60;;
21675;SDS011;10999;51.332;9.458;2023-08-21T01:36:20;10.52;;;4.68;;
21675;SDS011;10999;51.332;9.458;2023-08-21T01:38:47;9.15;;;4.57;;
21675;SDS011;10999;51.332;9.458;2023-08-21T01:41:14;9.02;;;4.82;;
21675;SDS011;10999;51.332;9.458;2023-08-21T01:43:41;10.52;;;4.03;;
21675;SDS011;10999;51.332;9.458;2023-08-21T01:46:08;7.20;;;4.43;;
21675;SDS011;10999;51.332;9.458;2023-08-21T01:48:35;9.18;;;4.35;;
21675;SDS011;10999;51.332;9.458;2023-08-21T01:51:02;7.72;;;4.75;;
21675;SDS011;10999;51.332;9.458;2023-08-21T01:53:29;10.30;;;4.22;;
21675;SDS011;10999;51.332;9.458;2023-08-21T01:55:56;10.15;;;4.63;;
21675;SDS011;10999;51.332;9.458;2023-08-21T01:58:25;9.15;;;4.20;;
21675;SDS011;10999;51.332;9.458;2023-08-21T02:00:52;9.88;;;4.78;;
21675;SDS011;10999;51.332;9.458;2023-08-21T02:03:19;9.70;;;3.92;;
21675;SDS011;10999;51.332;9.458;2023-08-21T02:05:46;7.80;;;4.35;;
21675;SDS011;10999;51.332;9.458;2023-08-21T02:08:13;12.95;;;5.05;;
21675;SDS011;10999;51.332;9.458;2023-08-21T02:10:52;9.50;;;4.25;;
21675;SDS011;10999;51.332;9.458;2023-08-21T02:13:19;9.13;;;4.32;;
21675;SDS011;10999;51.332;9.458;2023-08-21T02:15:46;9.02;;;4.43;;
21675;SDS011;10999;51.332;9.458;2023-08-21T02:18:13;9.32;;;4.53;;
21675;SDS011;10999;51.332;9.458;2023-08-21T02:20:40;9.82;;;4.60;;
21675;SDS011;10999;51.332;9.458;2023-08-21T02:23:07;8.35;;;3.83;;
21675;SDS011;10999;51.332;9.458;2023-08-21T02:25:34;8.98;;;4.97;;
21675;SDS011;10999;51.332;9.458;2023-08-21T02:28:01;8.52;;;4.63;;
21675;SDS011;10999;51.332;9.458;2023-08-21T02:30:30;8.65;;;3.80;;
21675;SDS011;10999;51.332;9.458;2023-08-21T02:32:57;8.38;;;4.15;;
21675;SDS011;10999;51.332;9.458;2023-08-21T02:35:25;7.65;;;3.63;;
21675;SDS011;10999;51.332;9.458;2023-08-21T02:37:51;7.72;;;4.20;;
21675;SDS011;10999;51.332;9.458;2023-08-21T02:40:18;8.73;;;4.22;;
21675;SDS011;10999;51.332;9.458;2023-08-21T02:42:45;7.57;;;3.80;;
21675;SDS011;10999;51.332;9.458;2023-08-21T02:45:12;9.50;;;3.95;;
21675;SDS011;10999;51.332;9.458;2023-08-21T02:47:38;7.30;;;3.67;;
21675;SDS011;10999;51.332;9.458;2023-08-21T02:50:07;8.02;;;3.70;;
21675;SDS011;10999;51.332;9.458;2023-08-21T02:52:35;10.02;;;4.63;;
21675;SDS011;10999;51.332;9.458;2023-08-21T02:55:03;10.15;;;4.68;;
21675;SDS011;10999;51.332;9.458;2023-08-21T02:57:31;8.15;;;4.22;;
21675;SDS011;10999;51.332;9.458;2023-08-21T02:59:57;7.85;;;3.72;;
21675;SDS011;10999;51.332;9.458;2023-08-21T03:02:24;8.50;;;4.07;;
21675;SDS011;10999;51.332;9.458;2023-08-21T03:04:51;10.27;;;4.53;;
21675;SDS011;10999;51.332;9.458;2023-08-21T03:07:18;7.93;;;4.40;;
21675;SDS011;10999;51.332;9.458;2023-08-21T03:09:46;8.90;;;4.22;;
21675;SDS011;10999;51.332;9.458;2023-08-21T03:12:13;7.53;;;4.00;;
21675;SDS011;10999;51.332;9.458;2023-08-21T03:14:40;8.82;;;4.45;;
21675;SDS011;10999;51.332;9.458;2023-08-21T03:17:07;7.72;;;3.88;;
21675;SDS011;10999;51.332;9.458;2023-08-21T03:19:34;8.40;;;3.83;;
21675;SDS011;10999;51.332;9.458;2023-08-21T03:22:01;8.30;;;4.10;;
21675;SDS011;10999;51.332;9.458;2023-08-21T03:24:28;10.23;;;4.70;;
21675;SDS011;10999;51.332;9.458;2023-08-21T03:26:55;9.77;;;4.30;;
21675;SDS011;10999;51.332;9.458;2023-08-21T03:29:24;9.77;;;4.30;;
21675;SDS011;10999;51.332;9.458;2023-08-21T03:31:52;9.80;;;4.22;;
21675;SDS011;10999;51.332;9.458;2023-08-21T03:34:20;8.75;;;4.50;;
21675;SDS011;10999;51.332;9.458;2023-08-21T03:36:47;8.25;;;4.45;;
21675;SDS011;10999;51.332;9.458;2023-08-21T03:39:14;9.50;;;4.43;;
21675;SDS011;10999;51.332;9.458;2023-08-21T03:41:41;9.32;;;3.97;;
21675;SDS011;10999;51.332;9.458;2023-08-21T03:44:08;7.35;;;4.20;;
21675;SDS011;10999;51.332;9.458;2023-08-21T03:46:35;9.85;;;3.88;;
21675;SDS011;10999;51.332;9.458;2023-08-21T03:49:02;8.02;;;3.97;;
21675;SDS011;10999;51.332;9.458;2023-08-21T03:51:28;6.95;;;3.55;;
21675;SDS011;10999;51.332;9.458;2023-08-21T03:53:55;10.65;;;4.35;;
21675;SDS011;10999;51.332;9.458;2023-08-21T03:56:22;8.65;;;4.13;;
21675;SDS011;10999;51.332;9.458;2023-08-21T03:58:49;7.53;;;3.85;;
21675;SDS011;10999;51.332;9.458;2023-08-21T04:01:16;7.65;;;3.42;;
21675;SDS011;10999;51.332;9.458;2023-08-21T04:03:43;7.22;;;3.65;;
21675;SDS011;10999;51.332;9.458;2023-08-21T04:06:10;9.65;;;3.60;;
21675;SDS011;10999;51.332;9.458;2023-08-21T04:08:36;9.00;;;3.88;;
21675;SDS011;10999;51.332;9.458;2023-08-21T04:11:04;8.32;;;3.22;;
21675;SDS011;10999;51.332;9.458;2023-08-21T04:13:31;7.68;;;3.20;;
21675;SDS011;10999;51.332;9.458;2023-08-21T04:15:58;9.80;;;3.88;;
21675;SDS011;10999;51.332;9.458;2023-08-21T04:18:25;7.72;;;3.83;;
21675;SDS011;10999;51.332;9.458;2023-08-21T04:21:07;7.93;;;3.25;;
21675;SDS011;10999;51.332;9.458;2023-08-21T04:23:34;6.80;;;2.95;;
21675;SDS011;10999;51.332;9.458;2023-08-21T04:26:02;7.82;;;3.03;;
21675;SDS011;10999;51.332;9.458;2023-08-21T04:28:30;6.50;;;3.05;;
21675;SDS011;10999;51.332;9.458;2023-08-21T04:30:57;5.68;;;2.55;;
21675;SDS011;10999;51.332;9.458;2023-08-21T04:33:25;7.25;;;3.55;;
21675;SDS011;10999;51.332;9.458;2023-08-21T04:35:51;7.05;;;3.00;;
21675;SDS011;10999;51.332;9.458;2023-08-21T04:38:18;6.13;;;2.70;;
21675;SDS011;10999;51.332;9.458;2023-08-21T04:40:45;6.20;;;2.92;;
21675;SDS011;10999;51.332;9.458;2023-08-21T04:43:12;8.65;;;2.90;;
21675;SDS011;10999;51.332;9.458;2023-08-21T04:45:45;10.93;;;3.28;;
21675;SDS011;10999;51.332;9.458;2023-08-21T04:48:15;7.55;;;3.08;;
21675;SDS011;10999;51.332;9.458;2023-08-21T04:50:42;8.82;;;3.58;;
21675;SDS011;10999;51.332;9.458;2023-08-21T04:53:09;8.68;;;3.67;;
21675;SDS011;10999;51.332;9.458;2023-08-21T04:55:36;7.13;;;3.28;;
21675;SDS011;10999;51.332;9.458;2023-08-21T04:58:03;7.70;;;3.33;;
21675;SDS011;10999;51.332;9.458;2023-08-21T05:00:30;7.18;;;3.55;;
21675;SDS011;10999;51.332;9.458;2023-08-21T05:02:57;6.47;;;2.92;;
21675;SDS011;10999;51.332;9.458;2023-08-21T05:05:24;9.10;;;2.90;;
21675;SDS011;10999;51.332;9.458;2023-08-21T05:07:51;9.68;;;3.53;;
21675;SDS011;10999;51.332;9.458;2023-08-21T05:10:19;6.75;;;3.30;;
21675;SDS011;10999;51.332;9.458;2023-08-21T05:12:46;6.50;;;2.95;;
21675;SDS011;10999;51.332;9.458;2023-08-21T05:15:13;6.78;;;3.03;;
21675;SDS011;10999;51.332;9.458;2023-08-21T05:17:40;7.68;;;3.10;;
21675;SDS011;10999;51.332;9.458;2023-08-21T05:20:07;8.00;;;2.63;;
21675;SDS011;10999;51.332;9.458;2023-08-21T05:22:34;5.80;;;2.63;;
21675;SDS011;10999;51.332;9.458;2023-08-21T05:25:02;7.90;;;3.05;;
21675;SDS011;10999;51.332;9.458;2023-08-21T05:27:29;7.45;;;2.85;;
21675;SDS011;10999;51.332;9.458;2023-08-21T05:29:55;7.68;;;3.17;;
21675;SDS011;10999;51.332;9.458;2023-08-21T05:32:22;6.18;;;2.78;;
21675;SDS011;10999;51.332;9.458;2023-08-21T05:34:49;5.68;;;2.63;;
21675;SDS011;10999;51.332;9.458;2023-08-21T05:37:16;5.80;;;2.90;;
21675;SDS011;10999;51.332;9.458;2023-08-21T05:39:43;6.75;;;2.53;;
21675;SDS011;10999;51.332;9.458;2023-08-21T05:42:10;5.93;;;2.28;;
21675;SDS011;10999;51.332;9.458;2023-08-21T05:44:36;6.40;;;2.33;;
21675;SDS011;10999;51.332;9.458;2023-08-21T05:47:03;6.40;;;2.67;;
21675;SDS011;10999;51.332;9.458;2023-08-21T05:49:30;7.82;;;2.90;;
21675;SDS011;10999;51.332;9.458;2023-08-21T05:51:57;6.65;;;2.78;;
21675;SDS011;10999;51.332;9.458;2023-08-21T05:54:25;6.75;;;2.72;;
21675;SDS011;10999;51.332;9.458;2023-08-21T05:56:52;7.18;;;2.72;;
21675;SDS011;10999;51.332;9.458;2023-08-21T05:59:31;6.85;;;3.17;;
21675;SDS011;10999;51.332;9.458;2023-08-21T06:01:58;6.43;;;2.90;;
21675;SDS011;10999;51.332;9.458;2023-08-21T06:04:25;6.55;;;2.97;;
21675;SDS011;10999;51.332;9.458;2023-08-21T06:06:53;8.73;;;3.63;;
21675;SDS011;10999;51.332;9.458;2023-08-21T06:09:20;8.40;;;3.33;;
21675;SDS011;10999;51.332;9.458;2023-08-21T06:11:48;8.63;;;3.40;;
21675;SDS011;10999;51.332;9.458;2023-08-21T06:14:15;8.35;;;3.75;;
21675;SDS011;10999;51.332;9.458;2023-08-21T06:16:41;6.82;;;3.30;;
21675;SDS011;10999;51.332;9.458;2023-08-21T06:19:11;8.25;;;3.15;;
21675;SDS011;10999;51.332;9.458;2023-08-21T06:21:38;8.13;;;3.97;;
21675;SDS011;10999;51.332;9.458;2023-08-21T06:24:05;6.68;;;3.50;;
21675;SDS011;10999;51.332;9.458;2023-08-21T06:26:31;8.38;;;2.92;;
21675;SDS011;10999;51.332;9.458;2023-08-21T06:28:58;7.88;;;3.30;;
21675;SDS011;10999;51.332;9.458;2023-08-21T06:31:25;9.40;;;3.70;;
21675;SDS011;10999;51.332;9.458;2023-08-21T06:33:52;9.02;;;3.70;;
21675;SDS011;10999;51.332;9.458;2023-08-21T06:36:19;7.40;;;3.50;;
21675;SDS011;10999;51.332;9.458;2023-08-21T06:38:45;7.95;;;3.30;;
21675;SDS011;10999;51.332;9.458;2023-08-21T06:41:12;7.20;;;3.63;;
21675;SDS011;10999;51.332;9.458;2023-08-21T06:43:39;8.13;;;3.95;;
21675;SDS011;10999;51.332;9.458;2023-08-21T06:46:10;8.40;;;3.58;;
21675;SDS011;10999;51.332;9.458;2023-08-21T06:48:38;8.23;;;3.60;;
21675;SDS011;10999;51.332;9.458;2023-08-21T06:51:07;8.77;;;3.67;;
21675;SDS011;10999;51.332;9.458;2023-08-21T06:53:34;9.55;;;4.00;;
21675;SDS011;10999;51.332;9.458;2023-08-21T06:56:00;8.80;;;3.78;;
21675;SDS011;10999;51.332;9.458;2023-08-21T06:58:28;7.25;;;3.90;;
21675;SDS011;10999;51.332;9.458;2023-08-21T07:00:55;7.50;;;3.35;;
21675;SDS011;10999;51.332;9.458;2023-08-21T07:03:22;7.28;;;3.80;;
21675;SDS011;10999;51.332;9.458;2023-08-21T07:05:58;8.15;;;3.45;;
21675;SDS011;10999;51.332;9.458;2023-08-21T07:08:26;7.07;;;3.70;;
21675;SDS011;10999;51.332;9.458;2023-08-21T07:10:53;9.75;;;3.47;;
21675;SDS011;10999;51.332;9.458;2023-08-21T07:13:20;8.13;;;3.47;;
21675;SDS011;10999;51.332;9.458;2023-08-21T07:15:47;7.50;;;3.40;;
21675;SDS011;10999;51.332;9.458;2023-08-21T07:18:14;7.13;;;3.45;;
21675;SDS011;10999;51.332;9.458;2023-08-21T07:20:41;8.85;;;3.58;;
21675;SDS011;10999;51.332;9.458;2023-08-21T07:23:07;9.13;;;3.88;;
21675;SDS011;10999;51.332;9.458;2023-08-21T07:25:34;10.35;;;3.65;;
21675;SDS011;10999;51.332;9.458;2023-08-21T07:28:01;6.63;;;3.40;;
21675;SDS011;10999;51.332;9.458;2023-08-21T07:30:28;7.45;;;3.92;;
21675;SDS011;10999;51.332;9.458;2023-08-21T07:32:55;7.25;;;3.17;;
21675;SDS011;10999;51.332;9.458;2023-08-21T07:35:21;9.52;;;3.90;;
21675;SDS011;10999;51.332;9.458;2023-08-21T07:37:48;8.68;;;3.80;;
21675;SDS011;10999;51.332;9.458;2023-08-21T07:40:15;7.88;;;3.60;;
21675;SDS011;10999;51.332;9.458;2023-08-21T07:42:42;9.05;;;3.80;;
21675;SDS011;10999;51.332;9.458;2023-08-21T07:45:09;8.55;;;3.38;;
21675;SDS011;10999;51.332;9.458;2023-08-21T07:47:36;8.20;;;3.60;;
21675;SDS011;10999;51.332;9.458;2023-08-21T07:50:04;8.48;;;3.67;;
21675;SDS011;10999;51.332;9.458;2023-08-21T07:52:32;7.22;;;3.08;;
21675;SDS011;10999;51.332;9.458;2023-08-21T07:55:00;6.88;;;2.90;;
21675;SDS011;10999;51.332;9.458;2023-08-21T07:57:27;6.13;;;2.60;;
21675;SDS011;10999;51.332;9.458;2023-08-21T07:59:55;6.20;;;2.67;;
21675;SDS011;10999;51.332;9.458;2023-08-21T08:02:22;7.03;;;2.65;;
21675;SDS011;10999;51.332;9.458;2023-08-21T08:04:57;8.68;;;3.15;;
21675;SDS011;10999;51.332;9.458;2023-08-21T08:07:23;7.97;;;3.10;;
21675;SDS011;10999;51.332;9.458;2023-08-21T08:09:51;5.93;;;2.65;;
21675;SDS011;10999;51.332;9.458;2023-08-21T08:12:18;7.10;;;3.38;;
21675;SDS011;10999;51.332;9.458;2023-08-21T08:14:45;7.22;;;3.03;;
21675;SDS011;10999;51.332;9.458;2023-08-21T08:17:13;6.80;;;2.83;;
21675;SDS011;10999;51.332;9.458;2023-08-21T08:19:39;6.68;;;2.78;;
21675;SDS011;10999;51.332;9.458;2023-08-21T08:22:06;7.35;;;2.90;;
21675;SDS011;10999;51.332;9.458;2023-08-21T08:24:33;7.40;;;2.95;;
21675;SDS011;10999;51.332;9.458;2023-08-21T08:27:01;7.97;;;2.60;;
21675;SDS011;10999;51.332;9.458;2023-08-21T08:29:28;8.00;;;2.90;;
21675;SDS011;10999;51.332;9.458;2023-08-21T08:31:55;7.35;;;2.53;;
21675;SDS011;10999;51.332;9.458;2023-08-21T08:34:22;6.47;;;3.05;;
21675;SDS011;10999;51.332;9.458;2023-08-21T08:36:49;7.50;;;2.45;;
21675;SDS011;10999;51.332;9.458;2023-08-21T08:39:16;9.07;;;2.90;;
21675;SDS011;10999;51.332;9.458;2023-08-21T08:42:05;6.95;;;3.00;;
21675;SDS011;10999;51.332;9.458;2023-08-21T08:44:33;7.53;;;2.72;;
21675;SDS011;10999;51.332;9.458;2023-08-21T08:47:02;7.38;;;2.70;;
21675;SDS011;10999;51.332;9.458;2023-08-21T08:49:30;8.98;;;2.50;;
21675;SDS011;10999;51.332;9.458;2023-08-21T08:51:57;7.07;;;3.10;;
21675;SDS011;10999;51.332;9.458;2023-08-21T08:54:25;10.90;;;3.05;;
21675;SDS011;10999;51.332;9.458;2023-08-21T08:56:53;5.93;;;2.58;;
21675;SDS011;10999;51.332;9.458;2023-08-21T08:59:20;7.15;;;3.33;;
21675;SDS011;10999;51.332;9.458;2023-08-21T09:01:47;6.50;;;3.08;;
21675;SDS011;10999;51.332;9.458;2023-08-21T09:04:14;5.38;;;2.45;;
21675;SDS011;10999;51.332;9.458;2023-08-21T09:06:42;5.68;;;2.72;;
21675;SDS011;10999;51.332;9.458;2023-08-21T09:09:09;8.13;;;3.13;;
21675;SDS011;10999;51.332;9.458;2023-08-21T09:11:42;8.05;;;2.63;;
21675;SDS011;10999;51.332;9.458;2023-08-21T09:14:10;6.78;;;3.00;;
21675;SDS011;10999;51.332;9.458;2023-08-21T09:16:37;6.43;;;3.30;;
21675;SDS011;10999;51.332;9.458;2023-08-21T09:19:23;7.70;;;3.10;;
21675;SDS011;10999;51.332;9.458;2023-08-21T09:21:50;7.00;;;3.17;;
21675;SDS011;10999;51.332;9.458;2023-08-21T09:24:17;9.63;;;3.88;;
21675;SDS011;10999;51.332;9.458;2023-08-21T09:26:43;7.60;;;3.08;;
21675;SDS011;10999;51.332;9.458;2023-08-21T09:29:10;8.98;;;3.60;;
21675;SDS011;10999;51.332;9.458;2023-08-21T09:31:37;6.90;;;2.90;;
21675;SDS011;10999;51.332;9.458;2023-08-21T09:34:06;8.38;;;3.28;;
21675;SDS011;10999;51.332;9.458;2023-08-21T09:36:33;6.72;;;3.03;;
21675;SDS011;10999;51.332;9.458;2023-08-21T09:39:00;7.13;;;3.28;;
21675;SDS011;10999;51.332;9.458;2023-08-21T09:41:28;6.30;;;2.97;;
21675;SDS011;10999;51.332;9.458;2023-08-21T09:43:58;5.95;;;2.70;;
21675;SDS011;10999;51.332;9.458;2023-08-21T09:46:30;8.35;;;3.30;;
21675;SDS011;10999;51.332;9.458;2023-08-21T09:48:57;6.97;;;3.38;;
21675;SDS011;10999;51.332;9.458;2023-08-21T09:51:24;8.40;;;2.78;;
21675;SDS011;10999;51.332;9.458;2023-08-21T09:53:53;8.18;;;3.15;;
21675;SDS011;10999;51.332;9.458;2023-08-21T09:56:21;7.68;;;2.90;;
21675;SDS011;10999;51.332;9.458;2023-08-21T09:58:48;7.32;;;3.00;;
21675;SDS011;10999;51.332;9.458;2023-08-21T10:01:17;7.03;;;2.90;;
21675;SDS011;10999;51.332;9.458;2023-08-21T10:03:47;7.30;;;3.15;;
21675;SDS011;10999;51.332;9.458;2023-08-21T10:06:17;6.97;;;3.20;;
21675;SDS011;10999;51.332;9.458;2023-08-21T10:08:48;9.57;;;3.25;;
21675;SDS011;10999;51.332;9.458;2023-08-21T10:11:20;5.43;;;2.80;;
21675;SDS011;10999;51.332;9.458;2023-08-21T10:13:48;7.00;;;3.42;;
21675;SDS011;10999;51.332;9.458;2023-08-21T10:16:17;7.82;;;3.28;;
21675;SDS011;10999;51.332;9.458;2023-08-21T10:18:45;9.40;;;4.10;;
21675;SDS011;10999;51.332;9.458;2023-08-21T10:21:14;6.97;;;3.28;;
21675;SDS011;10999;51.332;9.458;2023-08-21T10:23:45;6.93;;;3.28;;
21675;SDS011;10999;51.332;9.458;2023-08-21T10:26:15;9.20;;;3.60;;
21675;SDS011;10999;51.332;9.458;2023-08-21T10:28:48;10.02;;;3.45;;
21675;SDS011;10999;51.332;9.458;2023-08-21T10:33:59;9.20;;;3.80;;
21675;SDS011;10999;51.332;9.458;2023-08-21T10:36:40;8.82;;;3.83;;
21675;SDS011;10999;51.332;9.458;2023-08-21T10:39:26;8.20;;;3.47;;
21675;SDS011;10999;51.332;9.458;2023-08-21T10:42:09;8.88;;;3.83;;
21675;SDS011;10999;51.332;9.458;2023-08-21T10:47:23;8.57;;;4.72;;
21675;SDS011;10999;51.332;9.458;2023-08-21T10:49:51;6.70;;;3.50;;
21675;SDS011;10999;51.332;9.458;2023-08-21T10:52:34;7.65;;;3.80;;
21675;SDS011;10999;51.332;9.458;2023-08-21T10:55:03;7.63;;;4.32;;
21675;SDS011;10999;51.332;9.458;2023-08-21T10:57:31;11.25;;;5.63;;
21675;SDS011;10999;51.332;9.458;2023-08-21T11:00:00;7.60;;;3.55;;
21675;SDS011;10999;51.332;9.458;2023-08-21T11:05:05;7.97;;;4.13;;
21675;SDS011;10999;51.332;9.458;2023-08-21T11:07:41;7.22;;;3.83;;
21675;SDS011;10999;51.332;9.458;2023-08-21T11:10:16;7.82;;;3.55;;
21675;SDS011;10999;51.332;9.458;2023-08-21T11:12:51;6.55;;;3.67;;
21675;SDS011;10999;51.332;9.458;2023-08-21T11:15:26;8.30;;;3.78;;
21675;SDS011;10999;51.332;9.458;2023-08-21T11:17:57;7.55;;;4.00;;
21675;SDS011;10999;51.332;9.458;2023-08-21T11:20:32;8.57;;;3.75;;
21675;SDS011;10999;51.332;9.458;2023-08-21T11:23:01;8.25;;;4.57;;
21675;SDS011;10999;51.332;9.458;2023-08-21T11:25:33;6.55;;;3.50;;
21675;SDS011;10999;51.332;9.458;2023-08-21T11:28:00;8.50;;;3.80;;
21675;SDS011;10999;51.332;9.458;2023-08-21T11:30:30;8.88;;;3.85;;
21675;SDS011;10999;51.332;9.458;2023-08-21T11:33:08;8.93;;;3.78;;
21675;SDS011;10999;51.332;9.458;2023-08-21T11:38:03;9.30;;;3.88;;
21675;SDS011;10999;51.332;9.458;2023-08-21T11:40:35;7.97;;;3.70;;
21675;SDS011;10999;51.332;9.458;2023-08-21T11:43:02;8.85;;;4.03;;
21675;SDS011;10999;51.332;9.458;2023-08-21T11:45:31;8.13;;;3.80;;
21675;SDS011;10999;51.332;9.458;2023-08-21T11:48:10;7.30;;;3.90;;
21675;SDS011;10999;51.332;9.458;2023-08-21T11:50:37;8.68;;;3.28;;
21675;SDS011;10999;51.332;9.458;2023-08-21T11:53:05;9.02;;;4.25;;
21675;SDS011;10999;51.332;9.458;2023-08-21T11:55:32;8.90;;;4.07;;
21675;SDS011;10999;51.332;9.458;2023-08-21T11:58:01;8.38;;;4.10;;
21675;SDS011;10999;51.332;9.458;2023-08-21T12:00:28;6.47;;;3.53;;
21675;SDS011;10999;51.332;9.458;2023-08-21T12:02:57;9.43;;;3.90;;
21675;SDS011;10999;51.332;9.458;2023-08-21T12:05:27;8.32;;;4.10;;
21675;SDS011;10999;51.332;9.458;2023-08-21T12:07:55;8.07;;;3.80;;
21675;SDS011;10999;51.332;9.458;2023-08-21T12:10:23;8.68;;;3.53;;
21675;SDS011;10999;51.332;9.458;2023-08-21T12:12:54;8.10;;;3.40;;
21675;SDS011;10999;51.332;9.458;2023-08-21T12:15:21;7.25;;;3.80;;
21675;SDS011;10999;51.332;9.458;2023-08-21T12:17:48;9.23;;;3.55;;
21675;SDS011;10999;51.332;9.458;2023-08-21T12:20:15;5.68;;;3.28;;
21675;SDS011;10999;51.332;9.458;2023-08-21T12:22:42;6.20;;;3.08;;
21675;SDS011;10999;51.332;9.458;2023-08-21T12:25:08;7.75;;;3.53;;
21675;SDS011;10999;51.332;9.458;2023-08-21T12:27:39;6.50;;;3.00;;
21675;SDS011;10999;51.332;9.458;2023-08-21T12:30:07;6.45;;;3.55;;
21675;SDS011;10999;51.332;9.458;2023-08-21T12:32:34;5.97;;;3.28;;
21675;SDS011;10999;51.332;9.458;2023-08-21T12:35:01;6.78;;;3.25;;
21675;SDS011;10999;51.332;9.458;2023-08-21T12:37:27;7.20;;;3.53;;
21675;SDS011;10999;51.332;9.458;2023-08-21T12:39:54;7.53;;;3.53;;
21675;SDS011;10999;51.332;9.458;2023-08-21T12:42:21;7.43;;;3.70;;
21675;SDS011;10999;51.332;9.458;2023-08-21T12:44:48;6.90;;;3.55;;
21675;SDS011;10999;51.332;9.458;2023-08-21T12:47:15;7.07;;;3.40;;
21675;SDS011;10999;51.332;9.458;2023-08-21T12:49:41;8.52;;;3.50;;
21675;SDS011;10999;51.332;9.458;2023-08-21T12:52:09;7.32;;;3.42;;
21675;SDS011;10999;51.332;9.458;2023-08-21T12:54:38;6.45;;;3.20;;
21675;SDS011;10999;51.332;9.458;2023-08-21T12:57:05;8.60;;;3.53;;
21675;SDS011;10999;51.332;9.458;2023-08-21T12:59:33;8.32;;;4.18;;
21675;SDS011;10999;51.332;9.458;2023-08-21T13:02:01;7.15;;;3.63;;
21675;SDS011;10999;51.332;9.458;2023-08-21T13:04:27;9.25;;;3.95;;
21675;SDS011;10999;51.332;9.458;2023-08-21T13:06:54;8.73;;;3.60;;
21675;SDS011;10999;51.332;9.458;2023-08-21T13:09:21;6.97;;;3.92;;
21675;SDS011;10999;51.332;9.458;2023-08-21T13:11:51;9.13;;;4.20;;
21675;SDS011;10999;51.332;9.458;2023-08-21T13:14:18;6.63;;;3.80;;
21675;SDS011;10999;51.332;9.458;2023-08-21T13:16:45;7.25;;;3.50;;
21675;SDS011;10999;51.332;9.458;2023-08-21T13:19:12;5.85;;;3.35;;
21675;SDS011;10999;51.332;9.458;2023-08-21T13:21:38;6.30;;;3.25;;
21675;SDS011;10999;51.332;9.458;2023-08-21T13:24:05;7.30;;;3.28;;
21675;SDS011;10999;51.332;9.458;2023-08-21T13:26:32;6.82;;;3.88;;
21675;SDS011;10999;51.332;9.458;2023-08-21T13:28:59;8.00;;;3.35;;
21675;SDS011;10999;51.332;9.458;2023-08-21T13:31:26;8.05;;;4.65;;
21675;SDS011;10999;51.332;9.458;2023-08-21T13:33:55;8.15;;;3.70;;
21675;SDS011;10999;51.332;9.458;2023-08-21T13:36:22;9.25;;;3.95;;
21675;SDS011;10999;51.332;9.458;2023-08-21T13:38:51;7.18;;;4.15;;
21675;SDS011;10999;51.332;9.458;2023-08-21T13:41:18;9.07;;;4.07;;
21675;SDS011;10999;51.332;9.458;2023-08-21T13:43:44;7.95;;;3.55;;
21675;SDS011;10999;51.332;9.458;2023-08-21T13:46:11;6.47;;;3.78;;
21675;SDS011;10999;51.332;9.458;2023-08-21T13:48:38;9.05;;;3.95;;
21675;SDS011;10999;51.332;9.458;2023-08-21T13:51:05;6.65;;;3.40;;
21675;SDS011;10999;51.332;9.458;2023-08-21T13:53:32;7.30;;;3.50;;
21675;SDS011;10999;51.332;9.458;2023-08-21T13:55:59;9.18;;;4.05;;
21675;SDS011;10999;51.332;9.458;2023-08-21T13:58:26;8.43;;;4.10;;
21675;SDS011;10999;51.332;9.458;2023-08-21T14:00:52;7.07;;;3.53;;
21675;SDS011;10999;51.332;9.458;2023-08-21T14:03:19;7.32;;;2.92;;
21675;SDS011;10999;51.332;9.458;2023-08-21T14:05:46;6.70;;;4.15;;
21675;SDS011;10999;51.332;9.458;2023-08-21T14:08:13;7.85;;;3.63;;
21675;SDS011;10999;51.332;9.458;2023-08-21T14:10:40;8.65;;;3.67;;
21675;SDS011;10999;51.332;9.458;2023-08-21T14:13:07;8.30;;;3.30;;
21675;SDS011;10999;51.332;9.458;2023-08-21T14:15:34;6.13;;;3.40;;
21675;SDS011;10999;51.332;9.458;2023-08-21T14:18:01;7.65;;;3.53;;
21675;SDS011;10999;51.332;9.458;2023-08-21T14:20:29;6.75;;;3.05;;
21675;SDS011;10999;51.332;9.458;2023-08-21T14:22:56;7.20;;;3.13;;
21675;SDS011;10999;51.332;9.458;2023-08-21T14:25:22;7.00;;;3.30;;
21675;SDS011;10999;51.332;9.458;2023-08-21T14:27:51;7.47;;;2.97;;
21675;SDS011;10999;51.332;9.458;2023-08-21T14:30:17;8.40;;;3.40;;
21675;SDS011;10999;51.332;9.458;2023-08-21T14:32:45;7.05;;;3.40;;
21675;SDS011;10999;51.332;9.458;2023-08-21T14:35:12;7.43;;;3.42;;
21675;SDS011;10999;51.332;9.458;2023-08-21T14:37:39;7.10;;;3.70;;
21675;SDS011;10999;51.332;9.458;2023-08-21T14:40:06;6.90;;;3.17;;
21675;SDS011;10999;51.332;9.458;2023-08-21T14:42:36;7.07;;;3.40;;
21675;SDS011;10999;51.332;9.458;2023-08-21T14:45:04;9.85;;;3.92;;
21675;SDS011;10999;51.332;9.458;2023-08-21T14:47:41;7.32;;;3.40;;
21675;SDS011;10999;51.332;9.458;2023-08-21T14:50:20;8.45;;;3.50;;
21675;SDS011;10999;51.332;9.458;2023-08-21T14:53:00;8.00;;;3.75;;
21675;SDS011;10999;51.332;9.458;2023-08-21T14:55:26;8.70;;;3.70;;
21675;SDS011;10999;51.332;9.458;2023-08-21T14:57:53;6.35;;;3.20;;
21675;SDS011;10999;51.332;9.458;2023-08-21T15:00:20;6.82;;;3.15;;
21675;SDS011;10999;51.332;9.458;2023-08-21T15:02:47;6.13;;;3.38;;
21675;SDS011;10999;51.332;9.458;2023-08-21T15:05:14;7.25;;;3.40;;
21675;SDS011;10999;51.332;9.458;2023-08-21T15:07:43;10.32;;;4.70;;